createdAt,value
2023-09-06T00:01:10.809Z,101098.03
2023-09-06T00:06:12.947Z,101099.97
2023-09-06T00:11:16.258Z,101099.69
2023-09-06T00:16:18.828Z,101102.78
2023-09-06T00:21:21.048Z,101107.69
2023-09-06T00:26:23.170Z,101100.03
2023-09-06T00:31:25.445Z,101094.84
2023-09-06T00:36:33.382Z,101092.62
2023-09-06T00:41:40.397Z,101081.97
2023-09-06T00:46:42.878Z,101096.75
2023-09-06T00:51:45.091Z,101084.41
2023-09-06T00:56:47.223Z,101098.94
2023-09-06T01:01:49.473Z,101090.44
2023-09-06T01:06:57.392Z,101090.44
2023-09-06T01:12:00.270Z,101094.56
2023-09-06T01:17:02.838Z,101093.75
2023-09-06T01:22:41.627Z,101101.41
2023-09-06T01:27:45.495Z,101105.81
2023-09-06T01:32:47.829Z,101106.34
2023-09-06T01:37:52.576Z,101104.97
2023-09-06T01:42:55.343Z,101091.53
2023-09-06T01:47:57.534Z,101102.78
2023-09-06T01:52:59.712Z,101107.72
2023-09-06T01:58:01.946Z,101091.28
2023-09-06T02:03:04.749Z,101096.75
2023-09-06T02:08:07.092Z,101110.12
2023-09-06T02:13:09.344Z,101099.19
2023-09-06T02:18:16.375Z,101103.03
2023-09-06T02:23:19.051Z,101089.56
2023-09-06T02:28:21.195Z,101105.75
2023-09-06T02:33:23.525Z,101103.81
2023-09-06T02:38:26.338Z,101101.31
2023-09-06T02:43:28.546Z,101096.88
2023-09-06T02:48:31.007Z,101094.66
2023-09-06T02:53:34.148Z,101099.03
2023-09-06T02:58:38.499Z,101086.72
2023-09-06T03:03:43.516Z,101102.00
2023-09-06T03:08:47.248Z,101091.59
2023-09-06T03:13:49.319Z,101091.34
2023-09-06T03:18:54.122Z,101102.06
2023-09-06T03:23:56.270Z,101089.09
2023-09-06T03:28:58.404Z,101104.69
2023-09-06T03:34:00.501Z,101110.94
2023-09-06T03:39:06.983Z,101104.66
2023-09-06T03:44:09.332Z,101110.94
2023-09-06T03:49:11.857Z,101096.12
2023-09-06T03:54:14.247Z,101111.72
2023-09-06T03:59:17.851Z,101117.16
2023-09-06T04:04:20.054Z,101113.38
2023-09-06T04:09:29.020Z,101110.28
2023-09-06T04:14:35.369Z,101109.47
2023-09-06T04:19:37.626Z,101112.75
2023-09-06T04:24:39.940Z,101110.25
2023-09-06T04:29:42.233Z,101133.75
2023-09-06T04:34:44.530Z,101119.19
2023-09-06T04:39:46.837Z,101123.62
2023-09-06T04:44:48.938Z,101132.72
2023-09-06T04:49:51.037Z,101146.22
2023-09-06T04:54:53.345Z,101144.84
2023-09-06T04:59:55.489Z,101142.72
2023-09-06T05:04:57.570Z,101155.59
2023-09-06T05:09:59.713Z,101158.09
2023-09-06T05:15:02.179Z,101158.41
2023-09-06T05:20:29.048Z,101152.16
2023-09-06T05:25:31.826Z,101164.84
2023-09-06T05:30:34.132Z,101167.34
2023-09-06T05:35:36.503Z,101158.28
2023-09-06T05:40:41.695Z,101159.16
2023-09-06T05:45:43.933Z,101167.41
2023-09-06T05:50:46.228Z,101164.66
2023-09-06T05:55:48.407Z,101174.81
2023-09-06T06:00:54.723Z,101168.53
2023-09-06T10:31:54.793Z,101153.34
2023-09-06T10:36:59.320Z,101153.34
2023-09-06T10:42:10.676Z,101132.84
2023-09-06T10:47:28.891Z,101142.31
2023-09-06T10:52:42.455Z,101130.97
2023-09-06T10:57:49.803Z,101133.03
2023-09-06T11:03:11.102Z,101132.97
2023-09-06T11:08:25.593Z,101122.00
2023-09-06T11:13:31.941Z,101132.06
2023-09-06T11:18:52.100Z,101114.69
2023-09-06T11:23:55.300Z,101108.25
2023-09-06T11:29:05.090Z,101101.56
2023-09-06T11:34:10.227Z,101102.84
2023-09-06T11:39:20.579Z,101090.59
2023-09-06T11:44:24.600Z,101092.44
2023-09-06T11:49:27.213Z,101080.59
2023-09-06T11:54:33.019Z,101058.50
2023-09-06T11:59:35.463Z,101064.28
2023-09-06T12:04:37.573Z,101059.81
2023-09-06T12:09:39.765Z,101061.78
2023-09-06T12:14:44.305Z,101056.78
2023-09-06T12:19:47.275Z,101048.94
2023-09-06T12:24:49.831Z,101042.97
2023-09-06T12:29:52.073Z,101040.53
2023-09-06T12:34:54.218Z,101037.13
2023-09-06T12:39:56.544Z,101037.13
2023-09-06T12:44:58.780Z,101031.56
2023-09-06T12:50:02.873Z,101026.03
2023-09-06T12:55:05.914Z,101020.41
2023-09-06T13:00:11.456Z,101016.87
2023-09-06T13:05:21.044Z,101002.31
2023-09-06T13:10:23.542Z,101000.28
2023-09-06T13:15:25.684Z,100997.72
2023-09-06T13:20:27.811Z,100991.47
2023-09-06T13:25:30.098Z,100989.41
2023-09-06T13:30:32.452Z,100984.78
2023-09-06T13:35:34.577Z,100990.03
2023-09-06T13:40:36.929Z,100980.00
2023-09-06T13:45:39.067Z,100972.72
2023-09-06T13:50:41.152Z,100967.09
2023-09-06T13:55:43.321Z,100971.84
2023-09-06T14:00:45.450Z,100965.66
2023-09-06T14:05:47.769Z,100964.19
2023-09-06T14:10:54.356Z,100958.44
2023-09-06T14:15:57.013Z,100952.03
2023-09-06T14:20:59.275Z,100947.97
2023-09-06T14:26:01.541Z,100951.28
2023-09-06T14:31:03.678Z,100944.28
2023-09-06T14:36:06.379Z,100922.78
2023-09-06T14:41:08.735Z,100929.16
2023-09-06T14:46:10.903Z,100929.81
2023-09-06T14:51:15.171Z,100933.84
2023-09-06T14:56:17.596Z,100925.78
2023-09-06T15:01:20.015Z,100932.81
2023-09-06T15:06:22.948Z,100923.59
2023-09-06T15:11:25.115Z,100914.94
2023-09-06T15:16:27.682Z,100904.41
2023-09-06T15:21:29.924Z,100909.06
2023-09-06T15:26:32.053Z,100905.69
2023-09-06T15:31:34.260Z,100903.50
2023-09-06T15:36:36.655Z,100902.03
2023-09-06T15:41:40.006Z,100917.56
2023-09-06T15:46:43.179Z,100908.63
2023-09-06T15:51:45.379Z,100910.53
2023-09-06T15:56:47.945Z,100910.78
2023-09-06T16:01:50.251Z,100921.41
2023-09-06T16:06:54.262Z,100911.81
2023-09-06T16:11:57.746Z,100905.41
2023-09-06T16:17:00.312Z,100904.16
2023-09-06T16:22:05.710Z,100906.22
2023-09-06T16:27:08.082Z,100909.19
2023-09-06T16:32:11.331Z,100915.56
2023-09-06T16:37:13.549Z,100915.50
2023-09-06T16:42:17.357Z,100919.25
2023-09-06T16:47:19.510Z,100926.25
2023-09-06T16:52:21.669Z,100914.47
2023-09-06T16:57:23.880Z,100913.78
2023-09-06T17:02:26.095Z,100924.84
2023-09-06T17:07:28.483Z,100935.84
2023-09-06T17:12:30.659Z,100932.91
2023-09-06T17:17:33.859Z,100930.59
2023-09-06T17:22:36.133Z,100924.87
2023-09-06T17:27:39.266Z,100935.63
2023-09-06T17:32:42.731Z,100944.53
2023-09-06T17:37:44.978Z,100945.00
2023-09-06T17:42:47.883Z,100955.13
2023-09-06T17:47:50.269Z,100954.03
2023-09-06T17:52:52.556Z,100956.81
2023-09-06T17:57:54.702Z,100965.31
2023-09-06T18:03:01.294Z,100971.03
2023-09-06T18:08:06.531Z,100973.19
2023-09-06T18:13:12.146Z,100974.16
2023-09-06T18:18:26.491Z,100981.34
2023-09-06T18:23:29.095Z,100994.34
2023-09-06T18:28:32.771Z,100985.84
2023-09-06T18:33:35.092Z,100992.16
2023-09-06T18:38:38.120Z,100987.34
2023-09-06T18:43:40.948Z,101003.59
2023-09-06T18:48:43.205Z,101010.37
2023-09-06T18:53:45.466Z,101018.78
2023-09-06T18:58:47.606Z,101012.44
2023-09-06T19:03:49.869Z,101017.88
2023-09-06T19:08:52.371Z,101017.38
2023-09-06T19:13:54.706Z,101016.69
2023-09-06T19:18:56.960Z,101023.16
2023-09-06T19:23:59.221Z,101006.87
2023-09-06T19:29:01.908Z,101021.53
2023-09-06T19:34:05.459Z,101029.53
2023-09-06T19:39:12.424Z,101026.72
2023-09-06T19:44:14.803Z,101035.31
2023-09-06T19:49:17.006Z,101030.06
2023-09-06T19:54:19.848Z,101027.56
2023-09-06T19:59:21.949Z,101041.81
2023-09-06T20:04:24.217Z,101045.88
2023-09-06T20:09:29.627Z,101049.56
2023-09-06T20:14:32.582Z,101041.41
2023-09-06T20:19:34.815Z,101053.03
2023-09-06T20:24:36.957Z,101064.78
2023-09-06T20:29:40.212Z,101065.41
2023-09-06T20:34:43.577Z,101058.75
2023-09-06T20:39:45.800Z,101069.75
2023-09-06T20:44:48.173Z,101069.03
2023-09-06T20:50:01.388Z,101066.59
2023-09-06T20:55:05.663Z,101057.31
2023-09-06T21:00:10.531Z,101066.31
2023-09-06T21:05:12.716Z,101064.03
2023-09-06T21:10:15.226Z,101065.59
2023-09-06T21:15:17.519Z,101059.56
2023-09-06T21:20:20.922Z,101068.38
2023-09-06T21:25:23.325Z,101057.31
2023-09-06T21:30:25.434Z,101070.56
2023-09-06T21:35:30.338Z,101063.91
2023-09-06T21:40:32.537Z,101067.75
2023-09-06T21:45:36.815Z,101072.88
2023-09-06T21:50:41.122Z,101081.06
2023-09-06T21:55:43.426Z,101084.25
2023-09-06T22:00:46.151Z,101080.87
2023-09-06T22:05:49.629Z,101073.63
2023-09-06T22:10:52.053Z,101070.09
2023-09-06T22:15:54.809Z,101066.78
2023-09-06T22:20:57.173Z,101071.28
2023-09-06T22:26:00.026Z,101067.31
2023-09-06T22:31:02.506Z,101080.09
2023-09-06T22:36:04.762Z,101071.88
2023-09-06T22:41:06.835Z,101085.94
2023-09-06T22:46:09.243Z,101086.59
2023-09-06T22:51:11.456Z,101079.56
2023-09-06T22:56:13.609Z,101092.78
2023-09-06T23:01:15.867Z,101083.72
2023-09-06T23:06:18.197Z,101086.56
2023-09-06T23:11:20.694Z,101081.06
2023-09-06T23:16:23.569Z,101085.56
2023-09-06T23:21:33.527Z,101078.78
2023-09-06T23:26:37.857Z,101080.41
2023-09-06T23:31:44.656Z,101086.44
2023-09-06T23:36:47.041Z,101070.31
2023-09-06T23:41:54.444Z,101071.16
2023-09-06T23:46:57.783Z,101088.19
2023-09-06T23:51:59.987Z,101088.19
2023-09-06T23:57:03.886Z,101086.62
